createdAt,value
2022-12-08T00:00:53.653Z,37.53
2022-12-08T00:03:23.966Z,35.03
2022-12-08T00:06:09.201Z,31.13
2022-12-08T00:08:51.629Z,31.98
2022-12-08T00:11:22.251Z,26.45
2022-12-08T00:13:52.328Z,32.17
2022-12-08T00:16:22.474Z,33.75
2022-12-08T00:18:52.697Z,28.80
2022-12-08T00:21:25.399Z,27.70
2022-12-08T00:23:57.940Z,27.83
2022-12-08T00:26:27.943Z,26.75
2022-12-08T00:28:58.075Z,28.38
2022-12-08T00:31:28.189Z,29.98
2022-12-08T00:33:58.395Z,29.85
2022-12-08T00:36:31.580Z,28.63
2022-12-08T00:39:04.310Z,26.48
2022-12-08T00:41:46.808Z,27.88
2022-12-08T00:44:19.179Z,29.50
2022-12-08T00:46:50.144Z,29.27
2022-12-08T00:49:20.739Z,31.60
2022-12-08T00:51:53.493Z,27.08
2022-12-08T00:54:26.305Z,22.63
2022-12-08T00:56:56.453Z,27.67
2022-12-08T00:59:27.008Z,29.02
2022-12-08T01:01:57.081Z,29.73
2022-12-08T01:04:27.301Z,25.50
2022-12-08T01:06:59.971Z,25.70
2022-12-08T01:09:30.005Z,25.15
2022-12-08T01:12:00.088Z,25.20
2022-12-08T01:14:30.212Z,22.13
2022-12-08T01:17:00.444Z,20.45
2022-12-08T01:19:31.107Z,20.10
2022-12-08T01:22:03.830Z,17.92
2022-12-08T01:24:36.000Z,18.95
2022-12-08T01:27:06.055Z,17.85
2022-12-08T01:29:36.275Z,22.08
2022-12-08T01:32:06.447Z,21.52
2022-12-08T01:34:36.458Z,24.88
2022-12-08T01:37:09.076Z,23.48
2022-12-08T01:39:40.983Z,19.40
2022-12-08T01:42:22.237Z,18.73
2022-12-08T01:45:17.031Z,12.00
2022-12-08T01:47:51.269Z,16.17
2022-12-08T01:50:23.292Z,18.00
2022-12-08T01:53:00.309Z,15.45
2022-12-08T01:55:36.440Z,19.65
2022-12-08T01:58:10.065Z,15.43
2022-12-08T02:00:40.080Z,24.75
2022-12-08T02:03:16.267Z,20.00
2022-12-08T02:05:47.595Z,14.27
2022-12-08T02:08:20.975Z,16.20
2022-12-08T02:10:54.889Z,19.30
2022-12-08T02:13:27.399Z,17.70
2022-12-08T02:16:05.720Z,18.95
2022-12-08T02:19:28.548Z,20.33
2022-12-08T02:21:54.259Z,17.75
2022-12-08T02:24:34.344Z,16.20
2022-12-08T02:27:28.975Z,21.70
2022-12-08T02:33:12.561Z,15.70
2022-12-08T02:35:55.299Z,15.98
2022-12-08T02:38:40.547Z,17.27
2022-12-08T02:41:21.866Z,23.83
2022-12-08T02:43:59.614Z,18.08
2022-12-08T02:46:34.290Z,17.60
2022-12-08T02:49:05.387Z,21.70
2022-12-08T02:51:40.156Z,26.92
2022-12-08T02:54:10.367Z,21.70
2022-12-08T02:56:57.969Z,18.77
2022-12-08T02:59:50.874Z,21.45
2022-12-08T03:02:33.240Z,21.08
2022-12-08T03:05:10.392Z,15.65
2022-12-08T03:07:50.665Z,19.92
2022-12-08T03:10:26.046Z,21.05
2022-12-08T03:13:01.921Z,17.85
2022-12-08T03:15:34.813Z,18.38
2022-12-08T03:18:08.441Z,22.45
2022-12-08T03:20:40.049Z,16.73
2022-12-08T03:23:16.156Z,22.42
2022-12-08T03:25:51.640Z,18.27
2022-12-08T03:28:21.847Z,18.42
2022-12-08T03:30:58.445Z,19.80
2022-12-08T03:33:33.490Z,16.75
2022-12-08T03:36:07.612Z,15.38
2022-12-08T03:38:44.763Z,18.73
2022-12-08T03:41:21.324Z,17.58
2022-12-08T03:43:52.786Z,17.40
2022-12-08T03:48:55.334Z,16.50
2022-12-08T03:51:27.395Z,16.90
2022-12-08T03:54:00.994Z,14.73
2022-12-08T03:56:32.338Z,15.45
2022-12-08T03:59:02.786Z,17.67
2022-12-08T04:01:32.973Z,16.67
2022-12-08T04:04:03.143Z,14.70
2022-12-08T04:06:33.440Z,18.58
2022-12-08T04:09:06.130Z,17.02
2022-12-08T04:11:36.297Z,16.35
2022-12-08T04:14:06.523Z,17.23
2022-12-08T04:16:36.660Z,14.85
2022-12-08T04:19:06.935Z,14.90
2022-12-08T04:21:37.447Z,14.15
2022-12-08T04:24:10.728Z,15.95
2022-12-08T04:26:40.781Z,20.23
2022-12-08T04:29:10.878Z,16.52
2022-12-08T04:31:41.090Z,13.90
2022-12-08T04:34:11.931Z,14.60
2022-12-08T04:36:42.099Z,16.40
2022-12-08T04:39:14.764Z,18.92
2022-12-08T04:41:44.861Z,15.88
2022-12-08T04:44:15.035Z,16.95
2022-12-08T04:46:45.070Z,15.95
2022-12-08T04:49:15.173Z,15.05
2022-12-08T04:51:45.234Z,16.55
2022-12-08T04:54:17.853Z,13.20
2022-12-08T04:56:48.032Z,15.65
2022-12-08T04:59:18.116Z,19.25
2022-12-08T05:01:48.266Z,16.92
2022-12-08T05:04:18.454Z,16.85
2022-12-08T05:06:48.474Z,15.77
2022-12-08T05:09:21.167Z,14.90
2022-12-08T05:11:51.332Z,15.35
2022-12-08T05:14:22.309Z,14.85
2022-12-08T05:16:52.446Z,15.05
2022-12-08T05:19:24.820Z,17.80
2022-12-08T05:21:55.002Z,15.80
2022-12-08T05:24:27.964Z,11.73
2022-12-08T05:26:58.053Z,17.33
2022-12-08T05:29:28.613Z,16.02
2022-12-08T05:31:58.853Z,17.63
2022-12-08T05:34:29.227Z,15.00
2022-12-08T05:36:59.264Z,14.23
2022-12-08T05:39:32.108Z,19.27
2022-12-08T05:42:02.501Z,16.05
2022-12-08T05:44:32.720Z,16.95
2022-12-08T05:47:03.046Z,17.52
2022-12-08T05:49:33.220Z,17.08
2022-12-08T05:52:03.342Z,18.52
2022-12-08T05:54:35.977Z,17.95
2022-12-08T05:57:06.287Z,17.70
2022-12-08T05:59:37.203Z,21.10
2022-12-08T06:02:07.377Z,20.48
2022-12-08T06:04:37.479Z,25.10
2022-12-08T06:07:10.672Z,24.17
2022-12-08T06:09:47.496Z,23.95
2022-12-08T06:12:17.638Z,18.80
2022-12-08T06:14:48.811Z,20.90
2022-12-08T06:17:18.964Z,24.38
2022-12-08T06:19:49.040Z,21.65
2022-12-08T06:22:19.039Z,21.80
2022-12-08T06:24:51.801Z,23.35
2022-12-08T06:27:21.896Z,21.52
2022-12-08T06:29:51.992Z,18.73
2022-12-08T06:32:27.294Z,22.67
2022-12-08T06:34:57.724Z,21.13
2022-12-08T06:37:27.960Z,21.48
2022-12-08T06:40:01.259Z,24.38
2022-12-08T06:42:47.255Z,24.08
2022-12-08T06:45:19.424Z,24.75
2022-12-08T06:47:49.461Z,21.38
2022-12-08T06:50:19.524Z,19.42
2022-12-08T06:53:00.801Z,20.45
2022-12-08T06:58:27.575Z,26.20
2022-12-08T07:00:57.773Z,23.27
2022-12-08T07:03:27.876Z,22.70
2022-12-08T07:06:03.780Z,30.35
2022-12-08T07:08:35.159Z,32.35
2022-12-08T07:11:18.027Z,22.30
2022-12-08T07:16:19.567Z,21.83
2022-12-08T07:18:49.785Z,26.85
2022-12-08T07:21:20.764Z,23.52
2022-12-08T07:23:57.330Z,22.95
2022-12-08T07:26:30.503Z,29.63
2022-12-08T07:29:00.713Z,25.90
2022-12-08T07:31:31.408Z,30.42
2022-12-08T07:34:01.931Z,23.05
2022-12-08T07:36:32.708Z,28.67
2022-12-08T07:39:02.884Z,24.80
2022-12-08T07:41:36.322Z,29.88
2022-12-08T07:44:07.148Z,29.95
2022-12-08T07:46:37.228Z,24.60
2022-12-08T07:49:07.452Z,28.20
2022-12-08T07:51:37.562Z,24.90
2022-12-08T07:54:07.825Z,21.08
2022-12-08T07:56:40.459Z,29.23
2022-12-08T07:59:10.585Z,25.80
2022-12-08T08:01:41.381Z,27.75
2022-12-08T08:04:14.515Z,19.27
2022-12-08T08:06:44.651Z,20.42
2022-12-08T08:09:15.389Z,18.63
2022-12-08T08:12:01.279Z,16.38
2022-12-08T08:14:38.583Z,18.38
2022-12-08T08:17:08.808Z,19.20
2022-12-08T08:19:39.193Z,19.17
2022-12-08T08:22:09.343Z,18.65
2022-12-08T08:24:44.638Z,21.17
2022-12-08T08:27:17.865Z,23.30
2022-12-08T08:29:48.207Z,28.33
2022-12-08T08:32:18.291Z,21.25
2022-12-08T08:34:48.397Z,21.65
2022-12-08T08:37:18.564Z,25.60
2022-12-08T08:39:48.858Z,25.30
2022-12-08T08:42:21.520Z,24.92
2022-12-08T08:44:52.927Z,24.38
2022-12-08T08:47:23.080Z,28.52
2022-12-08T08:49:53.224Z,26.67
2022-12-08T08:52:23.290Z,30.85
2022-12-08T08:54:53.433Z,30.35
2022-12-08T08:57:26.384Z,25.95
2022-12-08T08:59:56.787Z,31.98
2022-12-08T09:02:27.025Z,27.30
2022-12-08T09:04:57.214Z,24.50
2022-12-08T09:07:27.443Z,20.73
2022-12-08T09:10:01.849Z,24.48
2022-12-08T09:15:04.928Z,26.10
2022-12-08T09:17:35.067Z,24.92
2022-12-08T09:20:05.595Z,23.17
2022-12-08T09:22:35.927Z,21.70
2022-12-08T09:25:06.452Z,20.80
2022-12-08T09:27:39.097Z,22.95
2022-12-08T09:30:11.022Z,21.77
2022-12-08T09:32:41.138Z,22.15
2022-12-08T09:35:11.755Z,19.35
2022-12-08T09:37:41.768Z,19.95
2022-12-08T09:40:18.414Z,18.98
2022-12-08T09:42:55.740Z,17.70
2022-12-08T09:45:29.543Z,20.15
2022-12-08T09:48:03.794Z,22.67
2022-12-08T09:50:38.060Z,19.45
2022-12-08T09:53:15.327Z,18.13
2022-12-08T09:55:49.720Z,23.08
2022-12-08T09:58:30.804Z,26.40
2022-12-08T10:01:02.157Z,19.02
2022-12-08T10:03:33.565Z,20.00
2022-12-08T10:06:10.722Z,19.95
2022-12-08T10:08:49.225Z,22.67
2022-12-08T10:11:27.244Z,20.27
2022-12-08T10:14:06.651Z,18.65
2022-12-08T10:16:42.189Z,21.95
2022-12-08T10:19:17.623Z,16.60
2022-12-08T10:21:48.406Z,17.83
2022-12-08T10:24:28.976Z,19.63
2022-12-08T10:26:59.662Z,19.40
2022-12-08T10:29:32.572Z,20.05
2022-12-08T10:32:03.318Z,18.98
2022-12-08T10:34:33.406Z,20.85
2022-12-08T10:37:03.492Z,17.48
2022-12-08T10:39:39.276Z,15.25
2022-12-08T10:42:22.199Z,18.67
2022-12-08T10:45:25.089Z,15.52
2022-12-08T10:48:02.789Z,11.50
2022-12-08T10:50:37.936Z,15.18
2022-12-08T10:53:16.229Z,18.15
2022-12-08T10:55:48.619Z,14.50
2022-12-08T10:58:30.438Z,12.35
2022-12-08T11:01:07.796Z,14.65
2022-12-08T11:03:40.494Z,13.48
2022-12-08T11:06:17.799Z,13.70
2022-12-08T11:08:52.085Z,20.45
2022-12-08T11:11:29.224Z,15.27
2022-12-08T11:13:59.659Z,16.75
2022-12-08T11:16:32.491Z,16.27
2022-12-08T11:19:08.362Z,15.70
2022-12-08T11:21:40.213Z,18.27
2022-12-08T11:24:25.368Z,15.60
2022-12-08T11:26:57.977Z,15.32
2022-12-08T11:29:29.112Z,13.32
2022-12-08T11:32:05.787Z,16.65
2022-12-08T11:34:41.771Z,18.02
2022-12-08T11:37:18.993Z,13.95
2022-12-08T11:39:53.263Z,19.33
2022-12-08T11:42:29.154Z,16.55
2022-12-08T11:45:02.211Z,13.27
2022-12-08T11:47:40.013Z,10.15
2022-12-08T11:50:22.989Z,12.50
2022-12-08T11:52:54.384Z,14.20
2022-12-08T11:55:37.460Z,13.25
2022-12-08T11:58:19.667Z,13.52
2022-12-08T12:00:49.904Z,11.85
2022-12-08T12:03:31.191Z,9.68
2022-12-08T12:09:21.289Z,11.20
2022-12-08T12:12:16.929Z,11.00
2022-12-08T12:15:16.020Z,10.20
2022-12-08T12:17:50.842Z,11.80
2022-12-08T12:20:28.910Z,11.93
2022-12-08T12:23:06.159Z,9.95
2022-12-08T12:25:38.649Z,9.70
2022-12-08T12:28:11.779Z,11.10
2022-12-08T12:31:00.794Z,10.52
2022-12-08T12:33:33.370Z,8.45
2022-12-08T12:36:10.404Z,8.35
2022-12-08T12:38:55.812Z,8.65
2022-12-08T12:41:28.882Z,8.77
2022-12-08T12:44:37.843Z,9.93
2022-12-08T12:47:13.149Z,9.35
2022-12-08T12:50:17.772Z,9.07
2022-12-08T12:52:54.593Z,10.30
2022-12-08T12:55:31.196Z,10.02
2022-12-08T12:58:01.896Z,9.50
2022-12-08T13:00:31.988Z,12.00
2022-12-08T13:03:02.380Z,8.88
2022-12-08T13:05:37.183Z,10.50
2022-12-08T13:08:19.576Z,11.48
2022-12-08T13:11:00.130Z,12.35
2022-12-08T13:13:31.288Z,15.32
2022-12-08T13:16:17.104Z,10.90
2022-12-08T13:18:52.406Z,11.70
2022-12-08T13:21:25.327Z,13.35
2022-12-08T13:24:17.886Z,10.60
2022-12-08T13:26:49.500Z,9.98
2022-12-08T13:29:23.139Z,11.45
2022-12-08T13:31:55.723Z,12.52
2022-12-08T13:34:34.219Z,6.95
2022-12-08T13:37:26.767Z,11.18
2022-12-08T13:40:04.038Z,9.80
2022-12-08T13:42:38.831Z,10.70
2022-12-08T13:45:33.455Z,9.77
2022-12-08T13:48:51.193Z,10.10
2022-12-08T13:53:22.519Z,11.27
2022-12-08T13:57:11.979Z,13.63
2022-12-08T13:59:47.500Z,8.88
2022-12-08T14:02:23.459Z,13.93
2022-12-08T14:05:34.567Z,14.85
2022-12-08T14:07:48.690Z,19.17
2022-12-08T14:10:23.419Z,14.77
2022-12-08T14:13:01.097Z,18.55
2022-12-08T14:15:38.239Z,16.38
2022-12-08T14:18:12.417Z,16.33
2022-12-08T14:21:19.047Z,17.92
2022-12-08T14:23:32.640Z,20.70
2022-12-08T14:26:02.727Z,20.48
2022-12-08T14:28:43.044Z,19.67
2022-12-08T14:31:15.061Z,16.70
2022-12-08T14:33:45.417Z,17.90
2022-12-08T14:36:16.880Z,13.35
2022-12-08T14:38:48.374Z,13.05
2022-12-08T14:41:18.476Z,17.33
2022-12-08T14:44:01.305Z,10.43
2022-12-08T14:46:31.966Z,13.38
2022-12-08T14:49:02.070Z,12.27
2022-12-08T14:51:34.754Z,13.45
2022-12-08T14:54:09.517Z,12.90
2022-12-08T14:56:42.175Z,10.73
2022-12-08T14:59:21.562Z,9.63
2022-12-08T15:01:53.939Z,9.40
2022-12-08T15:04:28.757Z,9.55
2022-12-08T15:07:05.546Z,11.35
2022-12-08T15:09:39.901Z,12.48
2022-12-08T15:12:27.110Z,9.93
2022-12-08T15:15:02.462Z,9.82
2022-12-08T15:17:37.227Z,9.75
2022-12-08T15:20:09.741Z,10.68
2022-12-08T15:22:39.870Z,8.73
2022-12-08T15:25:15.556Z,13.85
2022-12-08T15:27:50.711Z,11.68
2022-12-08T15:30:23.985Z,11.85
2022-12-08T15:32:56.086Z,9.07
2022-12-08T15:35:26.327Z,11.05
2022-12-08T15:37:56.732Z,9.63
2022-12-08T15:40:27.337Z,10.05
2022-12-08T15:42:57.441Z,10.50
2022-12-08T15:45:34.695Z,10.85
2022-12-08T15:48:04.987Z,8.27
2022-12-08T15:50:35.045Z,18.80
2022-12-08T15:53:05.285Z,21.90
2022-12-08T15:55:38.755Z,22.73
2022-12-08T16:01:02.768Z,10.82
2022-12-08T16:04:19.803Z,12.30
2022-12-08T16:07:12.938Z,11.48
2022-12-08T16:09:22.289Z,9.48
2022-12-08T16:12:07.303Z,10.20
2022-12-08T16:17:31.694Z,9.32
2022-12-08T16:20:04.101Z,12.93
2022-12-08T16:25:36.417Z,9.85
2022-12-08T16:28:52.241Z,7.30
2022-12-08T16:31:13.069Z,5.90
2022-12-08T16:33:46.522Z,7.20
2022-12-08T16:36:16.712Z,6.22
2022-12-08T16:38:46.774Z,7.80
2022-12-08T16:41:29.834Z,5.63
2022-12-08T16:44:04.138Z,6.25
2022-12-08T16:46:34.955Z,10.88
2022-12-08T16:49:10.710Z,8.27
2022-12-08T16:51:40.805Z,8.90
2022-12-08T16:54:10.823Z,8.30
2022-12-08T16:56:41.026Z,7.68
2022-12-08T16:59:11.113Z,8.48
2022-12-08T17:01:41.745Z,7.13
2022-12-08T17:04:30.989Z,6.63
2022-12-08T17:07:02.339Z,9.35
2022-12-08T17:09:34.404Z,9.90
2022-12-08T17:12:04.573Z,10.02
2022-12-08T17:14:37.388Z,8.93
2022-12-08T17:17:07.474Z,13.15
2022-12-08T17:19:40.599Z,13.90
2022-12-08T17:22:10.638Z,13.20
2022-12-08T17:24:40.864Z,12.15
2022-12-08T17:27:11.495Z,14.70
2022-12-08T17:29:41.652Z,13.82
2022-12-08T17:32:11.942Z,17.27
2022-12-08T17:34:44.884Z,14.23
2022-12-08T17:37:15.403Z,15.07
2022-12-08T17:39:45.904Z,20.30
2022-12-08T17:42:15.988Z,17.02
2022-12-08T17:44:46.808Z,20.40
2022-12-08T17:47:16.835Z,16.92
2022-12-08T17:49:49.561Z,19.67
2022-12-08T17:52:19.754Z,16.00
2022-12-08T17:54:49.849Z,18.13
2022-12-08T17:57:19.928Z,16.30
2022-12-08T17:59:50.085Z,17.20
2022-12-08T18:02:21.218Z,14.82
2022-12-08T18:04:53.966Z,15.43
2022-12-08T18:07:24.020Z,15.80
2022-12-08T18:09:54.588Z,17.02
2022-12-08T18:12:24.863Z,15.40
2022-12-08T18:14:55.154Z,17.08
2022-12-08T18:17:25.280Z,17.02
2022-12-08T18:19:58.266Z,12.70
2022-12-08T18:22:28.367Z,19.33
2022-12-08T18:24:58.399Z,17.08
2022-12-08T18:27:28.453Z,15.85
2022-12-08T18:29:58.524Z,15.70
2022-12-08T18:32:31.762Z,14.82
2022-12-08T18:35:05.068Z,16.75
2022-12-08T18:37:35.185Z,14.57
2022-12-08T18:40:06.822Z,15.57
2022-12-08T18:42:42.616Z,17.30
2022-12-08T18:45:16.782Z,15.57
2022-12-08T18:47:52.034Z,17.00
2022-12-08T18:50:24.734Z,15.52
2022-12-08T18:52:54.822Z,20.95
2022-12-08T18:55:24.917Z,21.98
2022-12-08T18:57:55.027Z,18.30
2022-12-08T19:00:25.194Z,21.95
2022-12-08T19:02:58.014Z,36.00
2022-12-08T19:05:32.837Z,33.03
2022-12-08T19:08:06.301Z,31.80
2022-12-08T19:10:40.830Z,26.47
2022-12-08T19:13:11.077Z,18.40
2022-12-08T19:15:41.180Z,18.67
2022-12-08T19:18:11.437Z,17.05
2022-12-08T19:20:46.555Z,19.05
2022-12-08T19:23:17.061Z,21.63
2022-12-08T19:25:47.254Z,19.20
2022-12-08T19:28:17.393Z,18.85
2022-12-08T19:30:47.606Z,20.33
2022-12-08T19:33:17.753Z,20.33
2022-12-08T19:35:52.769Z,20.52
2022-12-08T19:38:22.994Z,23.50
2022-12-08T19:41:05.550Z,25.88
2022-12-08T19:43:48.188Z,21.90
2022-12-08T19:46:18.430Z,27.52
2022-12-08T19:48:48.763Z,24.80
2022-12-08T19:51:26.767Z,21.65
2022-12-08T19:53:56.765Z,24.38
2022-12-08T19:56:26.868Z,26.73
2022-12-08T19:58:57.178Z,23.63
2022-12-08T20:01:30.558Z,24.92
2022-12-08T20:04:00.714Z,27.05
2022-12-08T20:06:33.754Z,24.95
2022-12-08T20:09:05.393Z,27.23
2022-12-08T20:11:35.555Z,20.38
2022-12-08T20:14:05.590Z,23.98
2022-12-08T20:16:36.430Z,24.48
2022-12-08T20:19:07.216Z,23.55
2022-12-08T20:21:41.679Z,23.38
2022-12-08T20:24:11.956Z,26.70
2022-12-08T20:26:42.104Z,25.25
2022-12-08T20:29:12.557Z,29.17
2022-12-08T20:31:42.666Z,40.03
2022-12-08T20:34:16.914Z,37.67
2022-12-08T20:39:21.476Z,34.72
2022-12-08T20:41:52.261Z,34.25
2022-12-08T20:44:22.376Z,35.42
2022-12-08T20:46:52.544Z,36.35
2022-12-08T20:49:22.679Z,35.40
2022-12-08T20:51:55.401Z,30.55
2022-12-08T20:54:25.760Z,38.38
2022-12-08T20:56:56.108Z,31.67
2022-12-08T20:59:26.532Z,32.08
2022-12-08T21:01:57.209Z,29.95
2022-12-08T21:04:27.578Z,28.67
2022-12-08T21:07:00.703Z,25.67
2022-12-08T21:09:31.046Z,21.58
2022-12-08T21:12:01.350Z,24.45
2022-12-08T21:14:31.538Z,24.92
2022-12-08T21:17:01.895Z,24.08
2022-12-08T21:19:32.188Z,20.77
2022-12-08T21:22:05.045Z,19.88
2022-12-08T21:24:35.429Z,21.98
2022-12-08T21:27:05.837Z,18.08
2022-12-08T21:29:35.934Z,20.75
2022-12-08T21:32:06.597Z,21.20
2022-12-08T21:34:37.355Z,19.20
2022-12-08T21:37:10.044Z,17.27
2022-12-08T21:39:40.376Z,20.85
2022-12-08T21:42:23.035Z,17.80
2022-12-08T21:44:53.981Z,20.33
2022-12-08T21:47:24.273Z,17.83
2022-12-08T21:49:54.490Z,22.40
2022-12-08T21:52:29.793Z,18.48
2022-12-08T21:54:59.989Z,18.30
2022-12-08T21:57:30.113Z,19.35
2022-12-08T22:00:01.677Z,18.10
2022-12-08T22:02:32.406Z,21.50
2022-12-08T22:05:02.572Z,20.98
2022-12-08T22:07:35.675Z,18.08
2022-12-08T22:10:07.751Z,19.95
2022-12-08T22:12:39.586Z,19.30
2022-12-08T22:15:11.948Z,21.67
2022-12-08T22:17:44.524Z,21.15
2022-12-08T22:20:17.315Z,19.23
2022-12-08T22:22:49.974Z,21.20
2022-12-08T22:25:20.681Z,21.35
2022-12-08T22:27:50.881Z,20.75
2022-12-08T22:30:21.537Z,20.67
2022-12-08T22:32:51.637Z,22.17
2022-12-08T22:35:21.875Z,18.80
2022-12-08T22:37:57.945Z,20.50
2022-12-08T22:40:27.952Z,22.23
2022-12-08T22:42:58.001Z,21.27
2022-12-08T22:45:28.205Z,23.02
2022-12-08T22:47:58.334Z,20.98
2022-12-08T22:50:28.364Z,22.20
2022-12-08T22:53:01.044Z,21.33
2022-12-08T22:55:31.281Z,20.67
2022-12-08T22:58:01.359Z,23.65
2022-12-08T23:00:31.995Z,19.85
2022-12-08T23:03:02.374Z,21.15
2022-12-08T23:05:35.346Z,24.33
2022-12-08T23:08:10.011Z,23.17
2022-12-08T23:10:42.516Z,20.17
2022-12-08T23:13:13.341Z,21.63
2022-12-08T23:15:44.386Z,22.65
2022-12-08T23:18:17.088Z,19.15
2022-12-08T23:20:48.245Z,22.33
2022-12-08T23:23:21.200Z,21.13
2022-12-08T23:25:51.473Z,20.50
2022-12-08T23:28:21.501Z,22.80
2022-12-08T23:30:51.970Z,22.65
2022-12-08T23:33:22.556Z,20.05
2022-12-08T23:35:59.575Z,20.50
2022-12-08T23:38:32.179Z,18.52
2022-12-08T23:41:03.801Z,21.65
2022-12-08T23:43:34.105Z,21.65
2022-12-08T23:46:04.796Z,18.77
2022-12-08T23:48:35.315Z,24.13
2022-12-08T23:51:05.501Z,24.02
2022-12-08T23:53:38.716Z,22.40
2022-12-08T23:56:12.310Z,25.52
2022-12-08T23:58:43.177Z,22.67
